Apache Creek, New Mexico
Current Conditions -  °F | °C
As of 7:55 AM on Wednesday 22 Oct 2014 (Local Time) from KJTC Reporting Station
Clear Clear  
Wind Chill:   Ceiling: Unl
Heat Index:   Visibility: 10mi
Dew Point:   Wind: 8mph
Humidity: 87%   Direction: 200°SSW
Pressure: 30.25"   Gusts: NA
Location:  33.6665°N, 108.765°W
Report Text: KJTC 221355Z AUTO 20007KT 10SM CLR 05/03 A3025 RMK AO2
Loading
Personal Weather Stations






























Interactive Weather Map
Tropical Storm Tracking
New forecast layout! Learn more

10-Day Weather Forecast

Advertisements
Track Severe Weather on mobile